sensor_id;sensor_type;location;lat;lon;timestamp;P1;P2;P0
47079;PMS5003;33067;49.296;14.470;2023-08-17T00:02:13;24;24;
47079;PMS5003;33067;49.296;14.470;2023-08-17T00:04:36;25;22;
47079;PMS5003;33067;49.296;14.470;2023-08-17T00:07:02;21;19;
47079;PMS5003;33067;49.296;14.470;2023-08-17T00:09:28;24;24;
47079;PMS5003;33067;49.296;14.470;2023-08-17T00:11:53;21;21;
47079;PMS5003;33067;49.296;14.470;2023-08-17T00:14:20;24;22;
47079;PMS5003;33067;49.296;14.470;2023-08-17T00:16:45;20;20;
47079;PMS5003;33067;49.296;14.470;2023-08-17T00:19:11;22;22;
47079;PMS5003;33067;49.296;14.470;2023-08-17T00:21:36;19;18;
47079;PMS5003;33067;49.296;14.470;2023-08-17T00:24:01;18;18;
47079;PMS5003;33067;49.296;14.470;2023-08-17T00:26:26;23;21;
47079;PMS5003;33067;49.296;14.470;2023-08-17T00:28:51;21;21;
47079;PMS5003;33067;49.296;14.470;2023-08-17T00:31:17;18;18;
47079;PMS5003;33067;49.296;14.470;2023-08-17T00:33:43;19;19;
47079;PMS5003;33067;49.296;14.470;2023-08-17T00:36:08;23;23;
47079;PMS5003;33067;49.296;14.470;2023-08-17T00:38:33;21;19;
47079;PMS5003;33067;49.296;14.470;2023-08-17T00:40:59;22;22;
47079;PMS5003;33067;49.296;14.470;2023-08-17T00:43:25;19;19;
47079;PMS5003;33067;49.296;14.470;2023-08-17T00:45:50;16;16;
47079;PMS5003;33067;49.296;14.470;2023-08-17T00:48:16;21;21;
47079;PMS5003;33067;49.296;14.470;2023-08-17T00:50:41;28;25;
47079;PMS5003;33067;49.296;14.470;2023-08-17T00:53:06;21;19;
47079;PMS5003;33067;49.296;14.470;2023-08-17T00:55:32;23;23;
47079;PMS5003;33067;49.296;14.470;2023-08-17T00:57:57;21;20;
47079;PMS5003;33067;49.296;14.470;2023-08-17T01:00:24;21;20;
47079;PMS5003;33067;49.296;14.470;2023-08-17T01:02:48;22;20;
47079;PMS5003;33067;49.296;14.470;2023-08-17T01:05:13;19;19;
47079;PMS5003;33067;49.296;14.470;2023-08-17T01:07:38;26;23;
47079;PMS5003;33067;49.296;14.470;2023-08-17T01:10:04;19;19;
47079;PMS5003;33067;49.296;14.470;2023-08-17T01:12:30;22;22;
47079;PMS5003;33067;49.296;14.470;2023-08-17T01:14:56;23;22;
47079;PMS5003;33067;49.296;14.470;2023-08-17T01:17:22;21;21;
47079;PMS5003;33067;49.296;14.470;2023-08-17T01:19:46;26;26;
47079;PMS5003;33067;49.296;14.470;2023-08-17T01:22:11;23;23;
47079;PMS5003;33067;49.296;14.470;2023-08-17T01:24:36;22;19;
47079;PMS5003;33067;49.296;14.470;2023-08-17T01:27:01;23;23;
47079;PMS5003;33067;49.296;14.470;2023-08-17T01:29:28;20;19;
47079;PMS5003;33067;49.296;14.470;2023-08-17T01:31:53;21;21;
47079;PMS5003;33067;49.296;14.470;2023-08-17T01:34:18;26;26;
47079;PMS5003;33067;49.296;14.470;2023-08-17T01:36:43;20;20;
47079;PMS5003;33067;49.296;14.470;2023-08-17T01:39:09;20;20;
47079;PMS5003;33067;49.296;14.470;2023-08-17T01:41:34;21;20;
47079;PMS5003;33067;49.296;14.470;2023-08-17T01:43:59;21;21;
47079;PMS5003;33067;49.296;14.470;2023-08-17T01:46:29;26;24;
47079;PMS5003;33067;49.296;14.470;2023-08-17T01:48:50;23;22;
47079;PMS5003;33067;49.296;14.470;2023-08-17T01:51:17;29;28;
47079;PMS5003;33067;49.296;14.470;2023-08-17T01:53:42;28;25;
47079;PMS5003;33067;49.296;14.470;2023-08-17T01:56:07;24;24;
47079;PMS5003;33067;49.296;14.470;2023-08-17T01:58:33;24;23;
47079;PMS5003;33067;49.296;14.470;2023-08-17T02:00:58;24;21;
47079;PMS5003;33067;49.296;14.470;2023-08-17T02:03:24;25;23;
47079;PMS5003;33067;49.296;14.470;2023-08-17T02:05:50;28;26;
47079;PMS5003;33067;49.296;14.470;2023-08-17T02:08:15;26;23;
47079;PMS5003;33067;49.296;14.470;2023-08-17T02:13:00;21;20;
47079;PMS5003;33067;49.296;14.470;2023-08-17T02:15:26;23;22;
47079;PMS5003;33067;49.296;14.470;2023-08-17T02:17:51;24;24;
47079;PMS5003;33067;49.296;14.470;2023-08-17T02:20:17;19;18;
47079;PMS5003;33067;49.296;14.470;2023-08-17T02:22:42;23;22;
47079;PMS5003;33067;49.296;14.470;2023-08-17T02:25:08;19;19;
47079;PMS5003;33067;49.296;14.470;2023-08-17T02:27:33;23;23;
47079;PMS5003;33067;49.296;14.470;2023-08-17T02:29:58;24;21;
47079;PMS5003;33067;49.296;14.470;2023-08-17T02:32:24;25;23;
47079;PMS5003;33067;49.296;14.470;2023-08-17T02:34:49;20;20;
47079;PMS5003;33067;49.296;14.470;2023-08-17T02:37:15;18;18;
47079;PMS5003;33067;49.296;14.470;2023-08-17T02:39:40;16;16;
47079;PMS5003;33067;49.296;14.470;2023-08-17T02:42:05;19;17;
47079;PMS5003;33067;49.296;14.470;2023-08-17T02:44:31;18;18;
47079;PMS5003;33067;49.296;14.470;2023-08-17T02:46:56;21;19;
47079;PMS5003;33067;49.296;14.470;2023-08-17T02:49:21;17;17;
47079;PMS5003;33067;49.296;14.470;2023-08-17T02:51:46;20;20;
47079;PMS5003;33067;49.296;14.470;2023-08-17T02:54:11;21;19;
47079;PMS5003;33067;49.296;14.470;2023-08-17T02:56:38;15;15;
47079;PMS5003;33067;49.296;14.470;2023-08-17T02:59:01;16;16;
47079;PMS5003;33067;49.296;14.470;2023-08-17T03:01:26;22;22;
47079;PMS5003;33067;49.296;14.470;2023-08-17T03:03:54;15;15;
47079;PMS5003;33067;49.296;14.470;2023-08-17T03:06:17;16;16;
47079;PMS5003;33067;49.296;14.470;2023-08-17T03:08:42;21;15;
47079;PMS5003;33067;49.296;14.470;2023-08-17T03:11:07;14;13;
47079;PMS5003;33067;49.296;14.470;2023-08-17T03:13:32;14;14;
47079;PMS5003;33067;49.296;14.470;2023-08-17T03:15:57;14;14;
47079;PMS5003;33067;49.296;14.470;2023-08-17T03:18:22;18;16;
47079;PMS5003;33067;49.296;14.470;2023-08-17T03:20:47;15;15;
47079;PMS5003;33067;49.296;14.470;2023-08-17T03:23:12;19;19;
47079;PMS5003;33067;49.296;14.470;2023-08-17T03:25:38;15;15;
47079;PMS5003;33067;49.296;14.470;2023-08-17T03:28:04;15;15;
47079;PMS5003;33067;49.296;14.470;2023-08-17T03:30:29;15;15;
47079;PMS5003;33067;49.296;14.470;2023-08-17T03:32:55;15;15;
47079;PMS5003;33067;49.296;14.470;2023-08-17T03:35:21;14;14;
47079;PMS5003;33067;49.296;14.470;2023-08-17T03:37:45;16;15;
47079;PMS5003;33067;49.296;14.470;2023-08-17T03:40:10;18;17;
47079;PMS5003;33067;49.296;14.470;2023-08-17T03:42:35;13;13;
47079;PMS5003;33067;49.296;14.470;2023-08-17T03:45:01;17;17;
47079;PMS5003;33067;49.296;14.470;2023-08-17T03:47:26;13;13;
47079;PMS5003;33067;49.296;14.470;2023-08-17T03:49:52;18;17;
47079;PMS5003;33067;49.296;14.470;2023-08-17T03:52:18;16;16;
47079;PMS5003;33067;49.296;14.470;2023-08-17T03:54:43;18;16;
47079;PMS5003;33067;49.296;14.470;2023-08-17T03:57:07;20;17;
47079;PMS5003;33067;49.296;14.470;2023-08-17T03:59:32;22;21;
47079;PMS5003;33067;49.296;14.470;2023-08-17T04:01:58;19;19;
47079;PMS5003;33067;49.296;14.470;2023-08-17T04:04:24;21;21;
47079;PMS5003;33067;49.296;14.470;2023-08-17T04:06:48;21;20;
47079;PMS5003;33067;49.296;14.470;2023-08-17T04:09:14;23;21;
47079;PMS5003;33067;49.296;14.470;2023-08-17T04:11:39;23;22;
47079;PMS5003;33067;49.296;14.470;2023-08-17T04:14:04;23;21;
47079;PMS5003;33067;49.296;14.470;2023-08-17T04:16:31;21;20;
47079;PMS5003;33067;49.296;14.470;2023-08-17T04:18:55;24;22;
47079;PMS5003;33067;49.296;14.470;2023-08-17T04:21:20;19;19;
47079;PMS5003;33067;49.296;14.470;2023-08-17T04:23:46;29;29;
47079;PMS5003;33067;49.296;14.470;2023-08-17T04:26:13;32;27;
47079;PMS5003;33067;49.296;14.470;2023-08-17T04:28:37;27;24;
47079;PMS5003;33067;49.296;14.470;2023-08-17T04:31:02;23;23;
47079;PMS5003;33067;49.296;14.470;2023-08-17T04:33:28;18;18;
47079;PMS5003;33067;49.296;14.470;2023-08-17T04:35:55;23;23;
47079;PMS5003;33067;49.296;14.470;2023-08-17T04:38:19;22;22;
47079;PMS5003;33067;49.296;14.470;2023-08-17T04:40:44;23;23;
47079;PMS5003;33067;49.296;14.470;2023-08-17T04:43:10;24;22;
47079;PMS5003;33067;49.296;14.470;2023-08-17T04:45:35;26;24;
47079;PMS5003;33067;49.296;14.470;2023-08-17T04:48:01;25;25;
47079;PMS5003;33067;49.296;14.470;2023-08-17T04:50:27;25;24;
47079;PMS5003;33067;49.296;14.470;2023-08-17T04:52:52;25;25;
47079;PMS5003;33067;49.296;14.470;2023-08-17T04:55:17;24;21;
47079;PMS5003;33067;49.296;14.470;2023-08-17T04:57:42;24;24;
47079;PMS5003;33067;49.296;14.470;2023-08-17T05:00:10;17;17;
47079;PMS5003;33067;49.296;14.470;2023-08-17T05:02:33;23;22;
47079;PMS5003;33067;49.296;14.470;2023-08-17T05:04:59;24;24;
47079;PMS5003;33067;49.296;14.470;2023-08-17T05:07:24;23;20;
47079;PMS5003;33067;49.296;14.470;2023-08-17T05:09:50;24;23;
47079;PMS5003;33067;49.296;14.470;2023-08-17T05:12:15;24;21;
47079;PMS5003;33067;49.296;14.470;2023-08-17T05:14:41;22;21;
47079;PMS5003;33067;49.296;14.470;2023-08-17T05:17:06;25;25;
47079;PMS5003;33067;49.296;14.470;2023-08-17T05:19:32;24;24;
47079;PMS5003;33067;49.296;14.470;2023-08-17T05:21:57;23;22;
47079;PMS5003;33067;49.296;14.470;2023-08-17T05:24:22;25;25;
47079;PMS5003;33067;49.296;14.470;2023-08-17T05:26:48;21;19;
47079;PMS5003;33067;49.296;14.470;2023-08-17T05:29:14;28;27;
47079;PMS5003;33067;49.296;14.470;2023-08-17T05:31:40;29;29;
47079;PMS5003;33067;49.296;14.470;2023-08-17T05:34:05;27;27;
47079;PMS5003;33067;49.296;14.470;2023-08-17T05:36:30;25;25;
47079;PMS5003;33067;49.296;14.470;2023-08-17T05:38:55;25;24;
47079;PMS5003;33067;49.296;14.470;2023-08-17T05:41:21;24;23;
47079;PMS5003;33067;49.296;14.470;2023-08-17T05:43:47;27;27;
47079;PMS5003;33067;49.296;14.470;2023-08-17T05:46:12;23;23;
47079;PMS5003;33067;49.296;14.470;2023-08-17T05:48:37;26;24;
47079;PMS5003;33067;49.296;14.470;2023-08-17T05:51:03;27;26;
47079;PMS5003;33067;49.296;14.470;2023-08-17T05:53:28;25;22;
47079;PMS5003;33067;49.296;14.470;2023-08-17T05:55:53;27;27;
47079;PMS5003;33067;49.296;14.470;2023-08-17T05:58:19;23;21;
47079;PMS5003;33067;49.296;14.470;2023-08-17T06:00:44;24;24;
47079;PMS5003;33067;49.296;14.470;2023-08-17T06:03:09;27;27;
47079;PMS5003;33067;49.296;14.470;2023-08-17T06:05:35;24;24;
47079;PMS5003;33067;49.296;14.470;2023-08-17T06:08:00;24;23;
47079;PMS5003;33067;49.296;14.470;2023-08-17T06:10:26;27;26;
47079;PMS5003;33067;49.296;14.470;2023-08-17T06:12:51;25;25;
47079;PMS5003;33067;49.296;14.470;2023-08-17T06:15:17;24;22;
47079;PMS5003;33067;49.296;14.470;2023-08-17T06:17:42;23;23;
47079;PMS5003;33067;49.296;14.470;2023-08-17T06:20:08;24;24;
47079;PMS5003;33067;49.296;14.470;2023-08-17T06:22:32;29;29;
47079;PMS5003;33067;49.296;14.470;2023-08-17T06:24:58;28;26;
47079;PMS5003;33067;49.296;14.470;2023-08-17T06:27:23;23;22;
47079;PMS5003;33067;49.296;14.470;2023-08-17T06:29:49;26;26;
47079;PMS5003;33067;49.296;14.470;2023-08-17T06:32:14;28;28;
47079;PMS5003;33067;49.296;14.470;2023-08-17T06:34:39;32;29;
47079;PMS5003;33067;49.296;14.470;2023-08-17T06:37:05;31;28;
47079;PMS5003;33067;49.296;14.470;2023-08-17T06:39:31;30;30;
47079;PMS5003;33067;49.296;14.470;2023-08-17T06:41:56;28;28;
47079;PMS5003;33067;49.296;14.470;2023-08-17T06:44:22;29;29;
47079;PMS5003;33067;49.296;14.470;2023-08-17T06:46:48;36;31;
47079;PMS5003;33067;49.296;14.470;2023-08-17T06:49:13;32;30;
47079;PMS5003;33067;49.296;14.470;2023-08-17T06:51:38;33;30;
47079;PMS5003;33067;49.296;14.470;2023-08-17T06:54:04;27;26;
47079;PMS5003;33067;49.296;14.470;2023-08-17T06:56:29;28;26;
47079;PMS5003;33067;49.296;14.470;2023-08-17T06:58:54;29;27;
47079;PMS5003;33067;49.296;14.470;2023-08-17T07:01:20;24;23;
47079;PMS5003;33067;49.296;14.470;2023-08-17T07:03:45;29;29;
47079;PMS5003;33067;49.296;14.470;2023-08-17T07:06:11;34;32;
47079;PMS5003;33067;49.296;14.470;2023-08-17T07:08:36;29;28;
47079;PMS5003;33067;49.296;14.470;2023-08-17T07:11:02;29;29;
47079;PMS5003;33067;49.296;14.470;2023-08-17T07:13:28;28;26;
47079;PMS5003;33067;49.296;14.470;2023-08-17T07:15:53;32;32;
47079;PMS5003;33067;49.296;14.470;2023-08-17T07:18:18;29;29;
47079;PMS5003;33067;49.296;14.470;2023-08-17T07:20:43;29;28;
47079;PMS5003;33067;49.296;14.470;2023-08-17T07:23:09;28;27;
47079;PMS5003;33067;49.296;14.470;2023-08-17T07:25:34;29;28;
47079;PMS5003;33067;49.296;14.470;2023-08-17T07:28:00;33;32;
47079;PMS5003;33067;49.296;14.470;2023-08-17T07:30:25;27;27;
47079;PMS5003;33067;49.296;14.470;2023-08-17T07:32:51;30;28;
47079;PMS5003;33067;49.296;14.470;2023-08-17T07:35:16;28;27;
47079;PMS5003;33067;49.296;14.470;2023-08-17T07:37:41;24;24;
47079;PMS5003;33067;49.296;14.470;2023-08-17T07:40:07;25;24;
47079;PMS5003;33067;49.296;14.470;2023-08-17T07:42:32;25;25;
47079;PMS5003;33067;49.296;14.470;2023-08-17T07:44:57;21;21;
47079;PMS5003;33067;49.296;14.470;2023-08-17T07:47:22;25;23;
47079;PMS5003;33067;49.296;14.470;2023-08-17T07:49:48;19;19;
47079;PMS5003;33067;49.296;14.470;2023-08-17T07:52:13;19;19;
47079;PMS5003;33067;49.296;14.470;2023-08-17T07:54:39;40;39;
47079;PMS5003;33067;49.296;14.470;2023-08-17T07:57:04;35;34;
47079;PMS5003;33067;49.296;14.470;2023-08-17T07:59:30;23;21;
47079;PMS5003;33067;49.296;14.470;2023-08-17T08:01:55;30;29;
47079;PMS5003;33067;49.296;14.470;2023-08-17T08:04:20;34;32;
47079;PMS5003;33067;49.296;14.470;2023-08-17T08:06:46;24;24;
47079;PMS5003;33067;49.296;14.470;2023-08-17T08:09:12;25;24;
47079;PMS5003;33067;49.296;14.470;2023-08-17T08:11:37;23;23;
47079;PMS5003;33067;49.296;14.470;2023-08-17T08:14:03;27;27;
47079;PMS5003;33067;49.296;14.470;2023-08-17T08:16:28;38;36;
47079;PMS5003;33067;49.296;14.470;2023-08-17T08:18:54;27;27;
47079;PMS5003;33067;49.296;14.470;2023-08-17T08:21:20;31;31;
47079;PMS5003;33067;49.296;14.470;2023-08-17T08:23:45;27;27;
47079;PMS5003;33067;49.296;14.470;2023-08-17T08:26:11;29;29;
47079;PMS5003;33067;49.296;14.470;2023-08-17T08:28:36;28;28;
47079;PMS5003;33067;49.296;14.470;2023-08-17T08:31:01;29;29;
47079;PMS5003;33067;49.296;14.470;2023-08-17T08:33:27;26;26;
47079;PMS5003;33067;49.296;14.470;2023-08-17T08:35:53;30;29;
47079;PMS5003;33067;49.296;14.470;2023-08-17T08:38:18;29;29;
47079;PMS5003;33067;49.296;14.470;2023-08-17T08:40:44;23;22;
47079;PMS5003;33067;49.296;14.470;2023-08-17T08:43:10;29;29;
47079;PMS5003;33067;49.296;14.470;2023-08-17T08:45:35;26;26;
47079;PMS5003;33067;49.296;14.470;2023-08-17T08:48:00;24;24;
47079;PMS5003;33067;49.296;14.470;2023-08-17T08:50:25;26;26;
47079;PMS5003;33067;49.296;14.470;2023-08-17T08:52:53;23;23;
47079;PMS5003;33067;49.296;14.470;2023-08-17T08:55:17;42;42;
47079;PMS5003;33067;49.296;14.470;2023-08-17T08:57:41;28;26;
47079;PMS5003;33067;49.296;14.470;2023-08-17T09:00:07;30;30;
47079;PMS5003;33067;49.296;14.470;2023-08-17T09:02:32;27;27;
47079;PMS5003;33067;49.296;14.470;2023-08-17T09:04:57;30;28;
47079;PMS5003;33067;49.296;14.470;2023-08-17T09:07:23;29;28;
47079;PMS5003;33067;49.296;14.470;2023-08-17T09:09:48;22;22;
47079;PMS5003;33067;49.296;14.470;2023-08-17T09:12:13;30;30;
47079;PMS5003;33067;49.296;14.470;2023-08-17T09:14:39;27;27;
47079;PMS5003;33067;49.296;14.470;2023-08-17T09:17:05;25;25;
47079;PMS5003;33067;49.296;14.470;2023-08-17T09:19:31;27;27;
47079;PMS5003;33067;49.296;14.470;2023-08-17T09:21:56;25;23;
47079;PMS5003;33067;49.296;14.470;2023-08-17T09:24:21;28;28;
47079;PMS5003;33067;49.296;14.470;2023-08-17T09:26:47;24;24;
47079;PMS5003;33067;49.296;14.470;2023-08-17T09:29:16;23;21;
47079;PMS5003;33067;49.296;14.470;2023-08-17T09:31:37;28;28;
47079;PMS5003;33067;49.296;14.470;2023-08-17T09:34:05;30;26;
47079;PMS5003;33067;49.296;14.470;2023-08-17T09:36:29;30;26;
47079;PMS5003;33067;49.296;14.470;2023-08-17T09:38:54;22;22;
47079;PMS5003;33067;49.296;14.470;2023-08-17T09:41:20;26;25;
47079;PMS5003;33067;49.296;14.470;2023-08-17T09:43:46;28;28;
47079;PMS5003;33067;49.296;14.470;2023-08-17T09:46:11;27;27;
47079;PMS5003;33067;49.296;14.470;2023-08-17T09:48:36;26;26;
47079;PMS5003;33067;49.296;14.470;2023-08-17T09:51:02;23;23;
47079;PMS5003;33067;49.296;14.470;2023-08-17T09:53:27;24;24;
47079;PMS5003;33067;49.296;14.470;2023-08-17T09:55:53;26;26;
47079;PMS5003;33067;49.296;14.470;2023-08-17T09:58:18;23;23;
47079;PMS5003;33067;49.296;14.470;2023-08-17T10:00:44;20;20;
47079;PMS5003;33067;49.296;14.470;2023-08-17T10:03:08;24;24;
47079;PMS5003;33067;49.296;14.470;2023-08-17T10:05:35;27;27;
47079;PMS5003;33067;49.296;14.470;2023-08-17T10:08:00;24;24;
47079;PMS5003;33067;49.296;14.470;2023-08-17T10:10:25;19;19;
47079;PMS5003;33067;49.296;14.470;2023-08-17T10:12:53;23;23;
47079;PMS5003;33067;49.296;14.470;2023-08-17T10:15:16;22;22;
47079;PMS5003;33067;49.296;14.470;2023-08-17T10:17:43;22;22;
47079;PMS5003;33067;49.296;14.470;2023-08-17T10:20:07;27;27;
47079;PMS5003;33067;49.296;14.470;2023-08-17T10:22:33;23;23;
47079;PMS5003;33067;49.296;14.470;2023-08-17T10:24:57;21;21;
47079;PMS5003;33067;49.296;14.470;2023-08-17T10:27:22;25;22;
47079;PMS5003;33067;49.296;14.470;2023-08-17T10:29:48;21;21;
47079;PMS5003;33067;49.296;14.470;2023-08-17T10:32:13;19;19;
47079;PMS5003;33067;49.296;14.470;2023-08-17T10:34:40;19;19;
47079;PMS5003;33067;49.296;14.470;2023-08-17T10:37:04;19;19;
47079;PMS5003;33067;49.296;14.470;2023-08-17T10:39:30;20;18;
47079;PMS5003;33067;49.296;14.470;2023-08-17T10:41:55;18;18;
47079;PMS5003;33067;49.296;14.470;2023-08-17T10:46:46;15;15;
47079;PMS5003;33067;49.296;14.470;2023-08-17T10:51:37;16;16;
47079;PMS5003;33067;49.296;14.470;2023-08-17T10:54:03;16;16;
47079;PMS5003;33067;49.296;14.470;2023-08-17T10:56:29;15;15;
47079;PMS5003;33067;49.296;14.470;2023-08-17T10:58:54;14;14;
47079;PMS5003;33067;49.296;14.470;2023-08-17T11:03:45;17;17;
47079;PMS5003;33067;49.296;14.470;2023-08-17T11:06:15;17;17;
47079;PMS5003;33067;49.296;14.470;2023-08-17T11:08:38;18;18;
47079;PMS5003;33067;49.296;14.470;2023-08-17T11:11:02;18;17;
47079;PMS5003;33067;49.296;14.470;2023-08-17T11:13:27;16;16;
47079;PMS5003;33067;49.296;14.470;2023-08-17T11:15:52;18;18;
47079;PMS5003;33067;49.296;14.470;2023-08-17T11:18:18;20;19;
47079;PMS5003;33067;49.296;14.470;2023-08-17T11:20:43;17;17;
47079;PMS5003;33067;49.296;14.470;2023-08-17T11:23:09;15;15;
47079;PMS5003;33067;49.296;14.470;2023-08-17T11:25:34;17;16;
47079;PMS5003;33067;49.296;14.470;2023-08-17T11:28:00;20;18;
47079;PMS5003;33067;49.296;14.470;2023-08-17T11:30:25;17;17;
47079;PMS5003;33067;49.296;14.470;2023-08-17T11:32:51;17;17;
47079;PMS5003;33067;49.296;14.470;2023-08-17T11:35:16;15;14;
47079;PMS5003;33067;49.296;14.470;2023-08-17T11:37:42;14;14;
47079;PMS5003;33067;49.296;14.470;2023-08-17T11:40:08;15;15;
47079;PMS5003;33067;49.296;14.470;2023-08-17T11:42:33;15;15;
47079;PMS5003;33067;49.296;14.470;2023-08-17T11:44:58;13;13;
47079;PMS5003;33067;49.296;14.470;2023-08-17T11:47:24;16;16;
47079;PMS5003;33067;49.296;14.470;2023-08-17T11:49:50;16;16;
47079;PMS5003;33067;49.296;14.470;2023-08-17T11:52:15;20;18;
47079;PMS5003;33067;49.296;14.470;2023-08-17T11:54:40;14;14;
47079;PMS5003;33067;49.296;14.470;2023-08-17T11:57:05;20;17;
47079;PMS5003;33067;49.296;14.470;2023-08-17T11:59:31;14;14;
47079;PMS5003;33067;49.296;14.470;2023-08-17T12:01:56;15;14;
47079;PMS5003;33067;49.296;14.470;2023-08-17T12:04:22;12;12;
47079;PMS5003;33067;49.296;14.470;2023-08-17T12:06:47;13;13;
47079;PMS5003;33067;49.296;14.470;2023-08-17T12:09:13;17;14;
47079;PMS5003;33067;49.296;14.470;2023-08-17T12:11:38;12;12;
47079;PMS5003;33067;49.296;14.470;2023-08-17T12:14:08;15;14;
47079;PMS5003;33067;49.296;14.470;2023-08-17T12:16:30;14;14;
47079;PMS5003;33067;49.296;14.470;2023-08-17T12:18:55;15;15;
47079;PMS5003;33067;49.296;14.470;2023-08-17T12:21:21;11;11;
47079;PMS5003;33067;49.296;14.470;2023-08-17T12:23:47;13;12;
47079;PMS5003;33067;49.296;14.470;2023-08-17T12:28:39;14;14;
47079;PMS5003;33067;49.296;14.470;2023-08-17T12:31:04;12;12;
47079;PMS5003;33067;49.296;14.470;2023-08-17T12:33:29;11;11;
47079;PMS5003;33067;49.296;14.470;2023-08-17T12:35:55;11;11;
47079;PMS5003;33067;49.296;14.470;2023-08-17T12:38:21;10;10;
47079;PMS5003;33067;49.296;14.470;2023-08-17T12:40:46;12;12;
47079;PMS5003;33067;49.296;14.470;2023-08-17T12:43:11;13;13;
47079;PMS5003;33067;49.296;14.470;2023-08-17T12:45:37;11;11;
47079;PMS5003;33067;49.296;14.470;2023-08-17T12:48:03;11;10;
47079;PMS5003;33067;49.296;14.470;2023-08-17T12:50:28;12;12;
47079;PMS5003;33067;49.296;14.470;2023-08-17T12:52:54;13;13;
47079;PMS5003;33067;49.296;14.470;2023-08-17T12:55:19;20;20;
47079;PMS5003;33067;49.296;14.470;2023-08-17T12:57:45;15;15;
47079;PMS5003;33067;49.296;14.470;2023-08-17T13:00:11;15;15;
47079;PMS5003;33067;49.296;14.470;2023-08-17T13:02:36;17;17;
47079;PMS5003;33067;49.296;14.470;2023-08-17T13:05:01;31;31;
47079;PMS5003;33067;49.296;14.470;2023-08-17T13:07:27;29;29;
47079;PMS5003;33067;49.296;14.470;2023-08-17T13:09:52;19;19;
47079;PMS5003;33067;49.296;14.470;2023-08-17T13:12:18;23;22;
47079;PMS5003;33067;49.296;14.470;2023-08-17T13:14:43;14;14;
47079;PMS5003;33067;49.296;14.470;2023-08-17T13:17:09;12;12;
47079;PMS5003;33067;49.296;14.470;2023-08-17T13:19:34;16;16;
47079;PMS5003;33067;49.296;14.470;2023-08-17T13:22:00;19;16;
47079;PMS5003;33067;49.296;14.470;2023-08-17T13:24:25;14;14;
47079;PMS5003;33067;49.296;14.470;2023-08-17T13:26:51;15;14;
47079;PMS5003;33067;49.296;14.470;2023-08-17T13:29:17;13;13;
47079;PMS5003;33067;49.296;14.470;2023-08-17T13:31:42;13;13;
47079;PMS5003;33067;49.296;14.470;2023-08-17T13:34:08;12;11;
47079;PMS5003;33067;49.296;14.470;2023-08-17T13:36:33;10;10;
47079;PMS5003;33067;49.296;14.470;2023-08-17T13:38:59;12;12;
47079;PMS5003;33067;49.296;14.470;2023-08-17T13:41:24;13;13;
47079;PMS5003;33067;49.296;14.470;2023-08-17T13:43:50;11;11;
47079;PMS5003;33067;49.296;14.470;2023-08-17T13:46:16;11;11;
47079;PMS5003;33067;49.296;14.470;2023-08-17T13:48:42;10;10;
47079;PMS5003;33067;49.296;14.470;2023-08-17T13:51:07;13;13;
47079;PMS5003;33067;49.296;14.470;2023-08-17T13:53:32;12;12;
47079;PMS5003;33067;49.296;14.470;2023-08-17T13:55:58;16;14;
47079;PMS5003;33067;49.296;14.470;2023-08-17T13:58:24;9;9;
47079;PMS5003;33067;49.296;14.470;2023-08-17T14:00:49;13;13;
47079;PMS5003;33067;49.296;14.470;2023-08-17T14:03:15;14;12;
47079;PMS5003;33067;49.296;14.470;2023-08-17T14:05:40;13;13;
47079;PMS5003;33067;49.296;14.470;2023-08-17T14:08:06;14;14;
47079;PMS5003;33067;49.296;14.470;2023-08-17T14:10:32;11;11;
47079;PMS5003;33067;49.296;14.470;2023-08-17T14:12:57;12;12;
47079;PMS5003;33067;49.296;14.470;2023-08-17T14:15:23;12;12;
47079;PMS5003;33067;49.296;14.470;2023-08-17T14:17:48;12;12;
47079;PMS5003;33067;49.296;14.470;2023-08-17T14:20:14;11;11;
47079;PMS5003;33067;49.296;14.470;2023-08-17T14:22:39;11;11;
47079;PMS5003;33067;49.296;14.470;2023-08-17T14:25:05;11;11;
47079;PMS5003;33067;49.296;14.470;2023-08-17T14:27:30;15;15;
47079;PMS5003;33067;49.296;14.470;2023-08-17T14:29:56;14;14;
47079;PMS5003;33067;49.296;14.470;2023-08-17T14:32:21;13;13;
47079;PMS5003;33067;49.296;14.470;2023-08-17T14:34:47;15;14;
47079;PMS5003;33067;49.296;14.470;2023-08-17T14:37:12;13;13;
47079;PMS5003;33067;49.296;14.470;2023-08-17T14:39:38;14;14;
47079;PMS5003;33067;49.296;14.470;2023-08-17T14:42:04;12;12;
47079;PMS5003;33067;49.296;14.470;2023-08-17T14:44:29;15;14;
47079;PMS5003;33067;49.296;14.470;2023-08-17T14:46:55;12;12;
47079;PMS5003;33067;49.296;14.470;2023-08-17T14:49:25;13;13;
47079;PMS5003;33067;49.296;14.470;2023-08-17T14:51:46;14;14;
47079;PMS5003;33067;49.296;14.470;2023-08-17T14:54:11;11;11;
47079;PMS5003;33067;49.296;14.470;2023-08-17T14:56:37;13;13;
47079;PMS5003;33067;49.296;14.470;2023-08-17T14:59:02;15;15;
47079;PMS5003;33067;49.296;14.470;2023-08-17T15:01:27;19;16;
47079;PMS5003;33067;49.296;14.470;2023-08-17T15:03:53;13;13;
47079;PMS5003;33067;49.296;14.470;2023-08-17T15:06:19;12;11;
47079;PMS5003;33067;49.296;14.470;2023-08-17T15:08:44;13;13;
47079;PMS5003;33067;49.296;14.470;2023-08-17T15:11:10;17;17;
47079;PMS5003;33067;49.296;14.470;2023-08-17T15:13:35;15;13;
47079;PMS5003;33067;49.296;14.470;2023-08-17T15:16:01;11;11;
47079;PMS5003;33067;49.296;14.470;2023-08-17T15:18:27;14;14;
47079;PMS5003;33067;49.296;14.470;2023-08-17T15:20:52;14;14;
47079;PMS5003;33067;49.296;14.470;2023-08-17T15:23:17;14;14;
47079;PMS5003;33067;49.296;14.470;2023-08-17T15:25:43;16;13;
47079;PMS5003;33067;49.296;14.470;2023-08-17T15:28:08;13;13;
47079;PMS5003;33067;49.296;14.470;2023-08-17T15:30:34;12;12;
47079;PMS5003;33067;49.296;14.470;2023-08-17T15:32:59;14;14;
47079;PMS5003;33067;49.296;14.470;2023-08-17T15:35:25;11;10;
47079;PMS5003;33067;49.296;14.470;2023-08-17T15:37:50;14;14;
47079;PMS5003;33067;49.296;14.470;2023-08-17T15:40:16;13;13;
47079;PMS5003;33067;49.296;14.470;2023-08-17T15:42:41;14;14;
47079;PMS5003;33067;49.296;14.470;2023-08-17T15:45:07;19;19;
47079;PMS5003;33067;49.296;14.470;2023-08-17T15:47:33;11;11;
47079;PMS5003;33067;49.296;14.470;2023-08-17T15:49:58;14;14;
47079;PMS5003;33067;49.296;14.470;2023-08-17T15:52:24;14;13;
47079;PMS5003;33067;49.296;14.470;2023-08-17T15:54:49;13;13;
47079;PMS5003;33067;49.296;14.470;2023-08-17T15:57:15;12;12;
47079;PMS5003;33067;49.296;14.470;2023-08-17T15:59:41;14;14;
47079;PMS5003;33067;49.296;14.470;2023-08-17T16:02:06;14;14;